Time;durP1;ratioP1;P1;durP2;ratioP2;P2;SDS_P1;SDS_P2;PMS_P1;PMS_P2;Temp;Humidity;BMP_temperature;BMP_pressure;BME280_temperature;BME280_humidity;BME280_pressure;Samples;Min_cycle;Max_cycle;Signal;HPM_P1;HPM_P2
2022/05/10 00:01:58;;;;;;;4.53;1.40;;;;;;;;;;5086697;28;20048;-74
2022/05/10 00:04:29;;;;;;;5.57;1.80;;;;;;;;;;5086149;28;20407;-74
2022/05/10 00:06:59;;;;;;;9.68;1.52;;;;;;;;;;5086419;28;20052;-74
2022/05/10 00:09:29;;;;;;;7.57;2.13;;;;;;;;;;5086372;28;20066;-74
2022/05/10 00:12:00;;;;;;;5.88;2.72;;;;;;;;;;5086356;28;20502;-74
2022/05/10 00:14:31;;;;;;;6.68;1.55;;;;;;;;;;5085090;28;20056;-74
2022/05/10 00:17:04;;;;;;;7.00;1.95;;;;;;;;;;5086563;28;20407;-74
2022/05/10 00:19:34;;;;;;;7.05;2.20;;;;;;;;;;5086230;28;20059;-76
2022/05/10 00:22:05;;;;;;;9.75;1.60;;;;;;;;;;5085952;28;20056;-76
2022/05/10 00:24:35;;;;;;;;;;;;;;;;;;5086604;28;20044;-74
2022/05/10 00:27:05;;;;;;;4.85;1.45;;;;;;;;;;5086578;28;20402;-75
2022/05/10 00:29:35;;;;;;;5.63;1.50;;;;;;;;;;5085785;28;20048;-74
2022/05/10 00:32:07;;;;;;;2.72;1.60;;;;;;;;;;5086787;28;20056;-74
2022/05/10 00:34:38;;;;;;;8.70;1.65;;;;;;;;;;5085793;28;20582;-75
2022/05/10 00:37:10;;;;;;;9.15;1.77;;;;;;;;;;5085898;28;20059;-74
2022/05/10 00:39:40;;;;;;;5.82;1.40;;;;;;;;;;5086736;28;20044;-73
2022/05/10 00:42:19;;;;;;;20.33;1.95;;;;;;;;;;5086241;28;20423;-73
2022/05/10 00:45:18;;;;;;;6.50;1.70;;;;;;;;;;5085111;28;20531;-73
2022/05/10 00:48:03;;;;;;;10.45;2.42;;;;;;;;;;5086044;28;20060;-76
2022/05/10 00:50:51;;;;;;;8.98;2.83;;;;;;;;;;5084329;28;20071;-73
2022/05/10 00:53:35;;;;;;;4.95;2.20;;;;;;;;;;5085525;28;20376;-73
2022/05/10 00:56:17;;;;;;;9.52;2.00;;;;;;;;;;5088523;28;20056;-73
2022/05/10 00:58:55;;;;;;;11.48;1.90;;;;;;;;;;5089683;28;20036;-73
2022/05/10 01:01:32;;;;;;;12.88;2.20;;;;;;;;;;5089165;28;20047;-74
2022/05/10 01:04:02;;;;;;;7.18;1.75;;;;;;;;;;5089360;28;20052;-73
2022/05/10 01:06:38;;;;;;;7.22;1.80;;;;;;;;;;5088775;28;20047;-73
2022/05/10 01:09:27;;;;;;;3.95;1.88;;;;;;;;;;5087824;28;20535;-73
2022/05/10 01:12:10;;;;;;;6.95;2.03;;;;;;;;;;5089302;28;20044;-73
2022/05/10 01:15:03;;;;;;;12.65;1.90;;;;;;;;;;5089498;28;20052;-73
2022/05/10 01:17:35;;;;;;;7.78;1.80;;;;;;;;;;5088225;28;20047;-73
2022/05/10 01:20:08;;;;;;;3.85;1.65;;;;;;;;;;5087252;28;20066;-74
2022/05/10 01:22:44;;;;;;;6.80;1.70;;;;;;;;;;5089067;28;20043;-73
2022/05/10 01:25:20;;;;;;;5.40;2.00;;;;;;;;;;5088476;28;20051;-75
2022/05/10 01:27:56;;;;;;;8.20;2.40;;;;;;;;;;5089337;28;20051;-73
2022/05/10 01:30:30;;;;;;;7.13;2.20;;;;;;;;;;5089039;28;20498;-73
2022/05/10 01:36:09;;;;;;;19.35;1.80;;;;;;;;;;5089149;28;20099;-73
2022/05/10 01:39:17;;;;;;;4.03;2.20;;;;;;;;;;5087996;28;20044;-73
2022/05/10 01:41:48;;;;;;;13.27;2.20;;;;;;;;;;5088075;28;20060;-73
2022/05/10 01:44:36;;;;;;;3.90;2.10;;;;;;;;;;5088995;28;20044;-73
2022/05/10 01:47:19;;;;;;;4.22;2.10;;;;;;;;;;5088855;28;20410;-73
2022/05/10 01:50:09;;;;;;;4.47;1.92;;;;;;;;;;5089460;28;20141;-74
2022/05/10 01:52:45;;;;;;;4.45;2.20;;;;;;;;;;5082886;28;20525;-73
2022/05/10 01:55:36;;;;;;;5.18;1.70;;;;;;;;;;5088720;28;20672;-74
2022/05/10 01:58:11;;;;;;;;;;;;;;;;;;5088909;28;20063;-73
2022/05/10 02:00:46;;;;;;;4.18;1.85;;;;;;;;;;5088677;28;19923;-74
2022/05/10 02:03:25;;;;;;;5.18;1.92;;;;;;;;;;5088269;28;20533;-73
2022/05/10 02:06:07;;;;;;;4.72;1.88;;;;;;;;;;5088807;28;20052;-73
2022/05/10 02:08:37;;;;;;;8.75;2.03;;;;;;;;;;5088195;28;20052;-73
2022/05/10 02:11:13;;;;;;;4.13;2.00;;;;;;;;;;5088829;28;20048;-73
2022/05/10 02:14:36;;;;;;;3.75;2.10;;;;;;;;;;5088110;28;20063;-73
2022/05/10 02:17:43;;;;;;;7.30;2.10;;;;;;;;;;5066303;28;20056;-74
2022/05/10 02:20:28;;;;;;;7.63;2.20;;;;;;;;;;5088216;28;20048;-74
2022/05/10 02:23:06;;;;;;;6.10;2.13;;;;;;;;;;5087618;28;20518;-74
2022/05/10 02:25:47;;;;;;;2.90;2.10;;;;;;;;;;5085953;28;20070;-73
2022/05/10 02:28:59;;;;;;;4.07;2.13;;;;;;;;;;5088234;28;20043;-74
2022/05/10 02:34:36;;;;;;;13.13;2.58;;;;;;;;;;5088609;28;20040;-74
2022/05/10 02:37:07;;;;;;;6.07;2.83;;;;;;;;;;5088095;28;20048;-74
2022/05/10 02:39:37;;;;;;;7.00;2.10;;;;;;;;;;5087632;28;20423;-74
2022/05/10 02:42:12;;;;;;;4.32;1.98;;;;;;;;;;5087974;28;20048;-74
2022/05/10 02:44:43;;;;;;;7.63;2.15;;;;;;;;;;5087675;28;20403;-74
2022/05/10 02:47:13;;;;;;;6.25;1.92;;;;;;;;;;5087778;28;20534;-73
2022/05/10 02:49:43;;;;;;;4.22;2.10;;;;;;;;;;5087736;28;20055;-73
2022/05/10 02:52:13;;;;;;;4.45;2.20;;;;;;;;;;5087623;28;20039;-73
2022/05/10 02:54:43;;;;;;;3.15;2.30;;;;;;;;;;5087455;28;20051;-73
2022/05/10 02:57:13;;;;;;;3.10;2.20;;;;;;;;;;5087289;28;20044;-73
2022/05/10 02:59:43;;;;;;;5.45;2.38;;;;;;;;;;5088743;28;20040;-74
2022/05/10 03:02:22;;;;;;;15.18;2.53;;;;;;;;;;5087316;28;20040;-74
2022/05/10 03:04:58;;;;;;;5.25;2.00;;;;;;;;;;5085810;28;20055;-74
2022/05/10 03:07:29;;;;;;;3.83;2.50;;;;;;;;;;5087642;28;20047;-74
2022/05/10 03:09:59;;;;;;;;;;;;;;;;;;5087620;28;20044;-74
2022/05/10 03:12:30;;;;;;;4.50;1.92;;;;;;;;;;5087322;28;19924;-74
2022/05/10 03:15:04;;;;;;;4.35;2.13;;;;;;;;;;5086982;28;20411;-74
2022/05/10 03:17:36;;;;;;;2.75;2.20;;;;;;;;;;5087039;28;20074;-74
2022/05/10 03:20:07;;;;;;;6.95;2.25;;;;;;;;;;5086453;28;20052;-74
2022/05/10 03:22:38;;;;;;;3.63;2.15;;;;;;;;;;5087424;28;20052;-74
2022/05/10 03:25:08;;;;;;;5.72;2.28;;;;;;;;;;5087541;28;20047;-74
2022/05/10 03:27:43;;;;;;;4.13;2.17;;;;;;;;;;5087254;28;20040;-74
2022/05/10 03:30:13;;;;;;;3.17;2.30;;;;;;;;;;5087468;28;20048;-74
2022/05/10 03:32:44;;;;;;;5.05;2.38;;;;;;;;;;5086877;28;20056;-74
2022/05/10 03:35:16;;;;;;;4.38;2.72;;;;;;;;;;5087219;28;20063;-74
2022/05/10 03:37:47;;;;;;;9.95;2.80;;;;;;;;;;5087530;28;20047;-74
2022/05/10 03:40:17;;;;;;;5.55;2.05;;;;;;;;;;5086816;28;20083;-74
2022/05/10 03:42:49;;;;;;;5.82;2.53;;;;;;;;;;5086888;28;20055;-75
2022/05/10 03:45:22;;;;;;;8.68;2.78;;;;;;;;;;5086912;28;20415;-74
2022/05/10 03:47:53;;;;;;;5.75;2.90;;;;;;;;;;5086619;28;20058;-74
2022/05/10 03:50:24;;;;;;;5.35;2.63;;;;;;;;;;5086801;28;20056;-74
2022/05/10 03:52:54;;;;;;;5.68;2.60;;;;;;;;;;5085698;28;20434;-74
2022/05/10 03:55:27;;;;;;;6.38;2.92;;;;;;;;;;5086501;28;20043;-74
2022/05/10 03:57:57;;;;;;;3.28;2.70;;;;;;;;;;5086402;28;20494;-74
2022/05/10 04:00:28;;;;;;;3.95;2.22;;;;;;;;;;5087258;28;20039;-74
2022/05/10 04:02:59;;;;;;;4.18;2.33;;;;;;;;;;5086202;28;20052;-74
2022/05/10 04:05:29;;;;;;;2.67;2.30;;;;;;;;;;5086553;28;20079;-74
2022/05/10 04:07:59;;;;;;;5.03;2.35;;;;;;;;;;5086323;28;20059;-74
2022/05/10 04:10:29;;;;;;;9.20;2.50;;;;;;;;;;5085951;28;20052;-74
2022/05/10 04:12:59;;;;;;;2.70;2.42;;;;;;;;;;5086295;28;20051;-74
2022/05/10 04:15:29;;;;;;;5.97;2.40;;;;;;;;;;5086167;28;21012;-74
2022/05/10 04:17:58;;;;;;;3.95;2.65;;;;;;;;;;5085625;28;20048;-74
2022/05/10 04:20:28;;;;;;;4.15;2.50;;;;;;;;;;5088088;28;20040;-74
2022/05/10 04:23:00;;;;;;;4.53;2.60;;;;;;;;;;5087818;28;20047;-74
2022/05/10 04:25:30;;;;;;;6.63;2.70;;;;;;;;;;5087518;28;20419;-74
2022/05/10 04:28:02;;;;;;;6.10;2.47;;;;;;;;;;5086628;28;20041;-74
2022/05/10 04:30:33;;;;;;;4.07;2.47;;;;;;;;;;5088846;28;20036;-74
2022/05/10 04:33:03;;;;;;;6.93;2.80;;;;;;;;;;5090130;28;20051;-74
2022/05/10 04:35:34;;;;;;;5.30;2.80;;;;;;;;;;5090215;28;20043;-74
2022/05/10 04:38:05;;;;;;;5.53;2.45;;;;;;;;;;5090468;28;20036;-74
2022/05/10 04:43:25;;;;;;;5.93;2.72;;;;;;;;;;5089888;28;20048;-74
2022/05/10 04:45:55;;;;;;;4.45;3.15;;;;;;;;;;5090232;28;20503;-74
2022/05/10 04:48:25;;;;;;;3.63;2.80;;;;;;;;;;5090710;28;20059;-74
2022/05/10 04:50:55;;;;;;;3.45;3.05;;;;;;;;;;5090307;28;20059;-74
2022/05/10 04:53:25;;;;;;;7.60;2.78;;;;;;;;;;5090170;28;20071;-74
2022/05/10 04:55:56;;;;;;;5.57;2.50;;;;;;;;;;5089868;28;20525;-74
2022/05/10 04:58:26;;;;;;;6.00;2.65;;;;;;;;;;5089984;28;20292;-74
2022/05/10 05:01:01;;;;;;;3.45;2.42;;;;;;;;;;5090175;28;20048;-74
2022/05/10 05:03:31;;;;;;;6.38;2.63;;;;;;;;;;5089868;28;20043;-74
2022/05/10 05:06:02;;;;;;;7.28;3.10;;;;;;;;;;5089939;28;20522;-74
2022/05/10 05:08:35;;;;;;;3.55;2.58;;;;;;;;;;5090256;28;20036;-74
2022/05/10 05:11:06;;;;;;;7.47;2.63;;;;;;;;;;5088145;28;20395;-74
2022/05/10 05:13:36;;;;;;;5.60;2.72;;;;;;;;;;5087554;28;20055;-74
2022/05/10 05:16:06;;;;;;;5.23;2.83;;;;;;;;;;5090467;28;20759;-74
2022/05/10 05:18:37;;;;;;;7.15;2.63;;;;;;;;;;5089635;28;20048;-74
2022/05/10 05:21:07;;;;;;;3.85;2.65;;;;;;;;;;5089229;28;20051;-73
2022/05/10 05:23:37;;;;;;;5.72;2.70;;;;;;;;;;5089175;28;20043;-73
2022/05/10 05:26:08;;;;;;;7.40;2.63;;;;;;;;;;5089037;28;20494;-74
2022/05/10 05:28:38;;;;;;;3.88;2.67;;;;;;;;;;5088819;28;20051;-74
2022/05/10 05:31:12;;;;;;;5.20;2.63;;;;;;;;;;5089077;28;20059;-74
2022/05/10 05:33:46;;;;;;;4.45;2.67;;;;;;;;;;5088806;28;20048;-73
2022/05/10 05:36:16;;;;;;;9.03;2.67;;;;;;;;;;5088727;28;20048;-73
2022/05/10 05:38:47;;;;;;;6.72;2.45;;;;;;;;;;5089712;28;20040;-74
2022/05/10 05:41:20;;;;;;;5.88;3.20;;;;;;;;;;5087997;28;20059;-74
2022/05/10 05:43:50;;;;;;;5.20;3.17;;;;;;;;;;5088928;28;20052;-73
2022/05/10 05:46:21;;;;;;;5.90;2.80;;;;;;;;;;5088740;28;20066;-73
2022/05/10 05:48:52;;;;;;;8.82;2.75;;;;;;;;;;5088850;28;20051;-73
2022/05/10 05:51:22;;;;;;;5.30;2.22;;;;;;;;;;5087549;28;20118;-73
2022/05/10 05:53:51;;;;;;;10.98;3.47;;;;;;;;;;5088504;28;20071;-73
2022/05/10 05:56:21;;;;;;;7.32;3.08;;;;;;;;;;5088334;28;20044;-73
2022/05/10 05:58:51;;;;;;;9.20;3.20;;;;;;;;;;5088734;28;20049;-73
2022/05/10 06:01:23;;;;;;;5.65;2.80;;;;;;;;;;5088869;28;20044;-73
2022/05/10 06:03:55;;;;;;;13.48;3.00;;;;;;;;;;5088242;28;20450;-73
2022/05/10 06:06:28;;;;;;;8.60;2.72;;;;;;;;;;5088653;28;20407;-73
2022/05/10 06:08:58;;;;;;;5.63;3.63;;;;;;;;;;5088356;28;20044;-74
2022/05/10 06:11:28;;;;;;;8.23;3.08;;;;;;;;;;5088253;28;20050;-73
2022/05/10 06:13:58;;;;;;;4.85;2.85;;;;;;;;;;5088627;28;20040;-73
2022/05/10 06:16:28;;;;;;;6.20;2.75;;;;;;;;;;5088650;28;20036;-73
2022/05/10 06:18:59;;;;;;;7.00;3.50;;;;;;;;;;5088928;28;20060;-73
2022/05/10 06:21:29;;;;;;;8.63;2.85;;;;;;;;;;5089108;28;20047;-73
2022/05/10 06:23:59;;;;;;;3.67;2.42;;;;;;;;;;5089554;28;20033;-73
2022/05/10 06:26:29;;;;;;;7.90;3.20;;;;;;;;;;5088051;28;20051;-73
2022/05/10 06:28:59;;;;;;;9.00;2.80;;;;;;;;;;5087555;28;20043;-73
2022/05/10 06:31:28;;;;;;;4.55;2.85;;;;;;;;;;5088336;28;20055;-74
2022/05/10 06:33:59;;;;;;;3.05;2.60;;;;;;;;;;5087834;28;20044;-73
2022/05/10 06:36:30;;;;;;;6.78;3.10;;;;;;;;;;5086051;28;20079;-74
2022/05/10 06:39:00;;;;;;;5.10;2.92;;;;;;;;;;5087347;28;20499;-73
2022/05/10 06:41:33;;;;;;;7.38;3.10;;;;;;;;;;5087816;28;20052;-73
2022/05/10 06:44:05;;;;;;;3.40;3.10;;;;;;;;;;5087836;28;20047;-73
2022/05/10 06:46:37;;;;;;;9.63;3.10;;;;;;;;;;5087056;28;20050;-73
2022/05/10 06:49:09;;;;;;;5.30;2.80;;;;;;;;;;5087883;28;20044;-73
2022/05/10 06:51:42;;;;;;;13.10;3.58;;;;;;;;;;5087365;28;20637;-73
2022/05/10 06:54:12;;;;;;;7.75;2.70;;;;;;;;;;5085555;28;20529;-73
2022/05/10 06:56:42;;;;;;;6.22;3.00;;;;;;;;;;5087552;28;20039;-73
2022/05/10 06:59:12;;;;;;;7.85;3.30;;;;;;;;;;5087891;28;20036;-73
2022/05/10 07:01:42;;;;;;;3.58;2.63;;;;;;;;;;5087586;28;20044;-73
2022/05/10 07:04:12;;;;;;;8.38;3.28;;;;;;;;;;5087531;28;20040;-74
2022/05/10 07:06:42;;;;;;;4.03;3.10;;;;;;;;;;5087479;28;20044;-73
2022/05/10 07:09:11;;;;;;;5.43;3.20;;;;;;;;;;5087909;28;20506;-73
2022/05/10 07:11:41;;;;;;;4.60;3.08;;;;;;;;;;5087478;28;20051;-73
2022/05/10 07:14:11;;;;;;;7.55;3.15;;;;;;;;;;5087258;28;20048;-73
2022/05/10 07:16:41;;;;;;;5.72;3.67;;;;;;;;;;5086987;28;20040;-74
2022/05/10 07:19:11;;;;;;;6.65;3.00;;;;;;;;;;5085884;28;20052;-74
2022/05/10 07:21:41;;;;;;;9.88;2.88;;;;;;;;;;5086825;28;20509;-73
2022/05/10 07:24:11;;;;;;;4.28;3.13;;;;;;;;;;5087239;28;20048;-73
2022/05/10 07:26:44;;;;;;;6.47;3.28;;;;;;;;;;5087079;28;20418;-73
2022/05/10 07:29:16;;;;;;;4.18;3.15;;;;;;;;;;5087454;28;20456;-73
2022/05/10 07:31:46;;;;;;;3.38;2.65;;;;;;;;;;5087410;28;20054;-73
2022/05/10 07:34:17;;;;;;;8.20;3.20;;;;;;;;;;5087380;28;20055;-74
2022/05/10 07:36:47;;;;;;;8.07;3.15;;;;;;;;;;5086863;28;20040;-73
2022/05/10 07:39:18;;;;;;;10.80;3.08;;;;;;;;;;5087175;28;20051;-73
2022/05/10 07:41:49;;;;;;;2.95;2.67;;;;;;;;;;5086946;28;20047;-74
2022/05/10 07:44:18;;;;;;;5.18;2.88;;;;;;;;;;5086522;28;20052;-73
2022/05/10 07:46:49;;;;;;;5.97;3.00;;;;;;;;;;5086869;28;20040;-73
2022/05/10 07:49:19;;;;;;;4.25;2.80;;;;;;;;;;5086272;28;20768;-73
2022/05/10 07:51:49;;;;;;;8.02;2.85;;;;;;;;;;5087092;28;20056;-73
2022/05/10 07:54:20;;;;;;;8.60;2.92;;;;;;;;;;5085295;28;20052;-73
2022/05/10 07:56:50;;;;;;;5.60;2.85;;;;;;;;;;5085446;28;20506;-73
2022/05/10 07:59:20;;;;;;;5.03;2.92;;;;;;;;;;5086655;28;20051;-74
2022/05/10 08:01:50;;;;;;;8.90;3.20;;;;;;;;;;5086492;28;20047;-73
2022/05/10 08:04:20;;;;;;;4.40;2.55;;;;;;;;;;5084816;28;20056;-73
2022/05/10 08:06:50;;;;;;;3.85;2.50;;;;;;;;;;5086959;28;20072;-73
2022/05/10 08:09:22;;;;;;;6.47;2.80;;;;;;;;;;5086683;28;20040;-73
2022/05/10 08:11:52;;;;;;;3.40;2.95;;;;;;;;;;5086855;28;20039;-73
2022/05/10 08:14:22;;;;;;;3.17;2.88;;;;;;;;;;5086992;28;20419;-73
2022/05/10 08:16:53;;;;;;;6.38;2.90;;;;;;;;;;5086593;28;20134;-73
2022/05/10 08:19:23;;;;;;;3.22;2.75;;;;;;;;;;5086254;28;20048;-73
2022/05/10 08:21:56;;;;;;;5.18;2.75;;;;;;;;;;5086737;28;20048;-74
2022/05/10 08:24:27;;;;;;;9.07;3.35;;;;;;;;;;5086392;28;20047;-73
2022/05/10 08:26:58;;;;;;;6.63;3.28;;;;;;;;;;5086022;28;20503;-73
2022/05/10 08:29:28;;;;;;;11.10;3.50;;;;;;;;;;5086082;28;20780;-73
2022/05/10 08:31:58;;;;;;;10.23;3.10;;;;;;;;;;5086588;28;20574;-73
2022/05/10 08:34:28;;;;;;;5.97;3.15;;;;;;;;;;5086144;28;20048;-73
2022/05/10 08:36:58;;;;;;;3.33;2.90;;;;;;;;;;5086433;28;20051;-73
2022/05/10 08:39:28;;;;;;;4.10;2.97;;;;;;;;;;5086590;28;20063;-74
2022/05/10 08:42:09;;;;;;;5.45;2.80;;;;;;;;;;5085661;28;20530;-73
2022/05/10 08:44:40;;;;;;;5.55;2.45;;;;;;;;;;5086772;28;20071;-73
2022/05/10 08:47:12;;;;;;;6.65;2.83;;;;;;;;;;5085958;28;20047;-73
2022/05/10 08:49:58;;;;;;;12.68;3.42;;;;;;;;;;5085796;28;20056;-74
2022/05/10 08:52:52;;;;;;;8.60;2.80;;;;;;;;;;5085722;28;20055;-73
2022/05/10 08:55:31;;;;;;;5.25;2.95;;;;;;;;;;5086012;28;20040;-74
2022/05/10 08:58:16;;;;;;;3.55;2.88;;;;;;;;;;5086005;28;20410;-73
2022/05/10 09:01:13;;;;;;;7.15;3.20;;;;;;;;;;5086719;28;20418;-75
2022/05/10 09:03:54;;;;;;;6.43;3.38;;;;;;;;;;5086828;28;20048;-73
2022/05/10 09:06:27;;;;;;;4.90;2.78;;;;;;;;;;5083981;28;20075;-73
2022/05/10 09:09:10;;;;;;;4.65;3.13;;;;;;;;;;5085900;28;20063;-74
2022/05/10 09:12:17;;;;;;;11.95;3.17;;;;;;;;;;5086163;28;20047;-74
2022/05/10 09:15:02;;;;;;;6.80;3.95;;;;;;;;;;5085706;28;20055;-74
2022/05/10 09:17:39;;;;;;;8.50;3.70;;;;;;;;;;5087985;28;20044;-73
2022/05/10 09:20:11;;;;;;;9.63;5.43;;;;;;;;;;5089517;28;20044;-73
2022/05/10 09:23:14;;;;;;;5.90;4.10;;;;;;;;;;5087689;28;20048;-74
2022/05/10 09:25:45;;;;;;;8.50;4.28;;;;;;;;;;5089402;28;20047;-74
2022/05/10 09:28:34;;;;;;;9.57;4.65;;;;;;;;;;5089452;28;20051;-73
2022/05/10 09:34:48;;;;;;;10.80;4.65;;;;;;;;;;5089501;28;20040;-73
2022/05/10 09:37:32;;;;;;;23.38;4.88;;;;;;;;;;5089702;28;20044;-74
2022/05/10 09:40:26;;;;;;;5.50;4.03;;;;;;;;;;5088765;28;20059;-73
2022/05/10 09:43:26;;;;;;;12.10;4.38;;;;;;;;;;5088546;28;20407;-73
2022/05/10 09:46:11;;;;;;;12.13;3.92;;;;;;;;;;5089200;28;20051;-74
2022/05/10 09:48:43;;;;;;;20.00;7.18;;;;;;;;;;5089151;28;20690;-76
2022/05/10 09:51:31;;;;;;;8.40;4.10;;;;;;;;;;5089047;28;20056;-74
2022/05/10 09:54:18;;;;;;;7.70;3.90;;;;;;;;;;5088849;28;20044;-73
2022/05/10 09:56:59;;;;;;;11.07;4.00;;;;;;;;;;5089167;28;20051;-73
2022/05/10 09:59:39;;;;;;;9.07;3.97;;;;;;;;;;5088396;28;20048;-73
2022/05/10 10:02:09;;;;;;;12.95;4.93;;;;;;;;;;5089029;28;20040;-74
2022/05/10 10:04:45;;;;;;;5.82;3.97;;;;;;;;;;5089194;28;20411;-74
2022/05/10 10:07:18;;;;;;;7.07;3.72;;;;;;;;;;5088745;28;20048;-73
2022/05/10 10:09:51;;;;;;;13.15;4.05;;;;;;;;;;5088678;28;20115;-74
2022/05/10 10:12:33;;;;;;;11.48;4.90;;;;;;;;;;5088954;28;20040;-72
2022/05/10 10:15:21;;;;;;;9.30;5.05;;;;;;;;;;5088632;28;20503;-74
2022/05/10 10:17:58;;;;;;;13.90;5.35;;;;;;;;;;5088532;28;20040;-73
2022/05/10 10:20:40;;;;;;;18.88;5.00;;;;;;;;;;5088146;28;20055;-73
2022/05/10 10:23:47;;;;;;;11.65;4.63;;;;;;;;;;5087879;28;20660;-74
2022/05/10 10:26:23;;;;;;;8.07;4.57;;;;;;;;;;5067252;28;20064;-74
2022/05/10 10:29:06;;;;;;;13.35;4.80;;;;;;;;;;5087138;28;20075;-74
2022/05/10 10:31:52;;;;;;;11.00;4.90;;;;;;;;;;5086491;28;20531;-73
2022/05/10 10:34:40;;;;;;;9.40;4.30;;;;;;;;;;5086258;28;20091;-74
2022/05/10 10:37:41;;;;;;;15.35;4.43;;;;;;;;;;5088030;28;20545;-75
2022/05/10 10:40:35;;;;;;;9.27;4.30;;;;;;;;;;5088213;28;20051;-73
2022/05/10 10:43:16;;;;;;;13.15;5.20;;;;;;;;;;5088156;28;20052;-73
2022/05/10 10:45:51;;;;;;;20.00;5.60;;;;;;;;;;5087767;28;20089;-75
2022/05/10 10:48:30;;;;;;;6.68;4.47;;;;;;;;;;5087786;28;20036;-75
2022/05/10 10:51:01;;;;;;;12.93;4.40;;;;;;;;;;5087544;28;20632;-75
2022/05/10 10:53:34;;;;;;;15.00;4.80;;;;;;;;;;5087626;28;20052;-77
2022/05/10 10:56:07;;;;;;;15.52;5.10;;;;;;;;;;5088069;28;20495;-78
2022/05/10 10:58:57;;;;;;;12.05;4.13;;;;;;;;;;5087568;28;20040;-74
2022/05/10 11:01:53;;;;;;;17.48;4.15;;;;;;;;;;5087479;28;20048;-75
2022/05/10 11:04:36;;;;;;;15.32;4.25;;;;;;;;;;5087442;28;20503;-75
2022/05/10 11:07:19;;;;;;;21.30;4.32;;;;;;;;;;5087631;28;20052;-75
2022/05/10 11:10:12;;;;;;;10.45;3.83;;;;;;;;;;5085746;28;20044;-75
2022/05/10 11:13:01;;;;;;;16.40;5.20;;;;;;;;;;5087614;28;20505;-75
2022/05/10 11:15:40;;;;;;;20.58;4.95;;;;;;;;;;5087594;28;20407;-75
2022/05/10 11:18:22;;;;;;;26.58;9.32;;;;;;;;;;5087657;28;20122;-73
2022/05/10 11:21:04;;;;;;;16.17;4.20;;;;;;;;;;5087152;28;20040;-75
2022/05/10 11:23:34;;;;;;;16.67;3.97;;;;;;;;;;5086018;28;20668;-74
2022/05/10 11:26:44;;;;;;;10.85;3.53;;;;;;;;;;5085083;28;20066;-74
2022/05/10 11:29:30;;;;;;;8.77;3.10;;;;;;;;;;5086834;28;20048;-75
2022/05/10 11:32:18;;;;;;;12.93;3.38;;;;;;;;;;5087104;28;20040;-73
2022/05/10 11:34:51;;;;;;;14.63;3.58;;;;;;;;;;5086957;28;20040;-73
2022/05/10 11:37:51;;;;;;;7.38;2.60;;;;;;;;;;5086932;28;20044;-74
2022/05/10 11:40:31;;;;;;;9.95;3.15;;;;;;;;;;5083456;28;20540;-74
2022/05/10 11:43:30;;;;;;;9.50;3.30;;;;;;;;;;5087312;28;20039;-73
2022/05/10 11:46:31;;;;;;;9.43;2.83;;;;;;;;;;5087176;28;20044;-74
2022/05/10 11:49:27;;;;;;;19.05;4.78;;;;;;;;;;5086604;28;20075;-74
2022/05/10 11:52:25;;;;;;;12.82;4.85;;;;;;;;;;5085680;28;20043;-75
2022/05/10 11:55:22;;;;;;;19.98;5.30;;;;;;;;;;5086680;28;20522;-73
2022/05/10 11:57:58;;;;;;;18.70;3.28;;;;;;;;;;5085063;28;20530;-73
2022/05/10 12:00:32;;;;;;;8.68;3.17;;;;;;;;;;5087054;28;20048;-74
2022/05/10 12:03:26;;;;;;;11.80;2.97;;;;;;;;;;5086985;28;20040;-74
2022/05/10 12:06:25;;;;;;;7.35;3.05;;;;;;;;;;5076320;28;20059;-74
2022/05/10 12:09:05;;;;;;;10.30;3.35;;;;;;;;;;5086559;28;20411;-73
2022/05/10 12:11:41;;;;;;;29.05;5.82;;;;;;;;;;5086313;28;20052;-77
2022/05/10 12:21:27;;;;;;;8.82;3.42;;;;;;;;;;5070815;28;20056;-75
2022/05/10 12:24:21;;;;;;;19.58;5.63;;;;;;;;;;5086156;28;20071;-73
2022/05/10 12:26:54;;;;;;;15.32;3.88;;;;;;;;;;5086665;28;20055;-74
2022/05/10 12:29:36;;;;;;;22.80;4.88;;;;;;;;;;5085799;28;20424;-73
2022/05/10 12:32:26;;;;;;;11.02;4.13;;;;;;;;;;5086664;28;20044;-74
2022/05/10 12:35:05;;;;;;;17.92;5.10;;;;;;;;;;5086110;28;20519;-75
2022/05/10 12:37:53;;;;;;;12.98;3.53;;;;;;;;;;5086488;28;20044;-74
2022/05/10 12:40:34;;;;;;;19.23;4.70;;;;;;;;;;5084615;28;20051;-74
2022/05/10 12:43:49;;;;;;;12.10;3.15;;;;;;;;;;5086174;28;20594;-75
2022/05/10 12:46:45;;;;;;;5.38;3.35;;;;;;;;;;5085764;28;20052;-75
2022/05/10 12:49:43;;;;;;;19.73;5.45;;;;;;;;;;5086400;28;20044;-74
2022/05/10 12:52:47;;;;;;;19.45;3.80;;;;;;;;;;5070928;28;20052;-75
2022/05/10 12:55:32;;;;;;;9.38;3.40;;;;;;;;;;5069259;28;20056;-75
2022/05/10 12:58:05;;;;;;;10.77;3.17;;;;;;;;;;5089892;28;20048;-75
2022/05/10 13:00:44;;;;;;;12.32;3.70;;;;;;;;;;5089774;28;20064;-76
2022/05/10 13:03:22;;;;;;;20.85;4.20;;;;;;;;;;5089968;28;20047;-76
2022/05/10 13:05:58;;;;;;;11.00;3.22;;;;;;;;;;5089748;28;20051;-76
2022/05/10 13:08:31;;;;;;;19.55;3.42;;;;;;;;;;5089635;28;20048;-76
2022/05/10 13:11:24;;;;;;;14.10;3.67;;;;;;;;;;5090132;28;20048;-76
2022/05/10 13:13:57;;;;;;;10.90;2.95;;;;;;;;;;5089994;28;20036;-75
2022/05/10 13:16:28;;;;;;;18.35;3.90;;;;;;;;;;5089534;28;20055;-75
2022/05/10 13:18:59;;;;;;;16.08;4.55;;;;;;;;;;5089458;28;20048;-75
2022/05/10 13:21:31;;;;;;;15.20;3.10;;;;;;;;;;5089170;28;20413;-75
2022/05/10 13:24:12;;;;;;;11.32;3.10;;;;;;;;;;5089293;28;20044;-75
2022/05/10 13:26:53;;;;;;;;;;;;;;;;;;5089822;28;20056;-75
2022/05/10 13:29:42;;;;;;;7.22;3.03;;;;;;;;;;5089493;28;19924;-76
2022/05/10 13:32:33;;;;;;;13.07;3.30;;;;;;;;;;5089878;28;20044;-75
2022/05/10 13:35:19;;;;;;;13.30;3.22;;;;;;;;;;5089490;28;20036;-75
2022/05/10 13:37:59;;;;;;;8.88;2.75;;;;;;;;;;5088866;28;20048;-76
2022/05/10 13:40:50;;;;;;;3.90;2.63;;;;;;;;;;5089447;28;20044;-75
2022/05/10 13:43:27;;;;;;;;;;;;;;;;;;5089715;28;20048;-75
2022/05/10 13:46:15;;;;;;;32.85;3.97;;;;;;;;;;5087808;28;20417;-75
2022/05/10 13:48:50;;;;;;;10.70;2.90;;;;;;;;;;5088969;28;20044;-75
2022/05/10 13:51:31;;;;;;;9.70;3.20;;;;;;;;;;5087939;28;20594;-74
2022/05/10 13:54:05;;;;;;;5.32;2.60;;;;;;;;;;5089231;28;20044;-74
2022/05/10 13:56:41;;;;;;;39.38;5.43;;;;;;;;;;5089162;28;20107;-75
2022/05/10 13:59:12;;;;;;;6.70;3.00;;;;;;;;;;5088008;28;20047;-76
2022/05/10 14:01:43;;;;;;;12.68;3.17;;;;;;;;;;5087238;28;20047;-74
2022/05/10 14:04:18;;;;;;;13.25;3.50;;;;;;;;;;5088206;28;20410;-75
2022/05/10 14:06:58;;;;;;;8.68;3.13;;;;;;;;;;5088125;28;20063;-75
2022/05/10 14:09:40;;;;;;;12.38;3.03;;;;;;;;;;5088572;28;20044;-74
2022/05/10 14:12:13;;;;;;;;;;;;;;;;;;5089135;28;20040;-74
2022/05/10 14:14:43;;;;;;;9.57;2.50;;;;;;;;;;5088537;28;19924;-75
2022/05/10 14:17:14;;;;;;;6.33;2.93;;;;;;;;;;5088685;28;20040;-75
2022/05/10 14:19:47;;;;;;;17.67;3.53;;;;;;;;;;5086665;28;20519;-75
2022/05/10 14:22:23;;;;;;;13.45;4.15;;;;;;;;;;5088629;28;20052;-76
2022/05/10 14:24:54;;;;;;;15.90;3.42;;;;;;;;;;5088523;28;20044;-74
2022/05/10 14:27:26;;;;;;;11.02;3.50;;;;;;;;;;5088505;28;20062;-75
2022/05/10 14:30:00;;;;;;;6.35;3.67;;;;;;;;;;5087814;28;20056;-74
2022/05/10 14:32:33;;;;;;;7.40;2.97;;;;;;;;;;5087957;28;20048;-75
2022/05/10 14:35:07;;;;;;;7.47;2.90;;;;;;;;;;5088193;28;20406;-75
2022/05/10 14:37:50;;;;;;;10.98;2.83;;;;;;;;;;5088689;28;20044;-75
2022/05/10 14:40:29;;;;;;;8.45;4.40;;;;;;;;;;5088226;28;20055;-74
2022/05/10 14:43:06;;;;;;;10.00;3.28;;;;;;;;;;5088167;28;20048;-75
2022/05/10 14:45:41;;;;;;;9.52;3.00;;;;;;;;;;5088283;28;20057;-75
2022/05/10 14:48:36;;;;;;;13.70;3.47;;;;;;;;;;5087021;28;20052;-75
2022/05/10 14:51:28;;;;;;;13.13;3.65;;;;;;;;;;5087880;28;20060;-76
2022/05/10 14:53:58;;;;;;;6.05;4.20;;;;;;;;;;5077702;28;20052;-74
2022/05/10 14:56:35;;;;;;;8.60;4.85;;;;;;;;;;5087209;28;20047;-76
2022/05/10 14:59:48;;;;;;;11.88;6.25;;;;;;;;;;5086782;28;20051;-74
2022/05/10 15:02:19;;;;;;;12.05;5.63;;;;;;;;;;5086898;28;20514;-76
2022/05/10 15:04:50;;;;;;;6.82;4.85;;;;;;;;;;5088178;28;20062;-75
2022/05/10 15:07:21;;;;;;;12.13;4.32;;;;;;;;;;5086755;28;20052;-75
2022/05/10 15:09:51;;;;;;;9.00;3.63;;;;;;;;;;5087159;28;20095;-75
2022/05/10 15:15:14;;;;;;;10.43;4.30;;;;;;;;;;5085259;28;20052;-75
2022/05/10 15:20:40;;;;;;;13.68;3.38;;;;;;;;;;5059052;28;20554;-75
2022/05/10 15:23:10;;;;;;;6.15;3.38;;;;;;;;;;5086963;28;20055;-75
2022/05/10 15:25:42;;;;;;;10.85;3.25;;;;;;;;;;5085764;28;20418;-74
2022/05/10 15:28:13;;;;;;;9.68;3.35;;;;;;;;;;5087356;28;20044;-74
2022/05/10 15:30:42;;;;;;;15.30;3.45;;;;;;;;;;5086996;28;20044;-75
2022/05/10 15:33:13;;;;;;;8.50;3.00;;;;;;;;;;5086281;28;20052;-75
2022/05/10 15:35:43;;;;;;;;;;;;;;;;;;5087379;28;20693;-75
2022/05/10 15:38:19;;;;;;;12.63;4.28;;;;;;;;;;5086496;28;19924;-74
2022/05/10 15:40:53;;;;;;;10.80;3.33;;;;;;;;;;5086847;28;20052;-75
2022/05/10 15:43:27;;;;;;;10.98;3.30;;;;;;;;;;5086505;28;20403;-75
2022/05/10 15:45:59;;;;;;;14.68;3.30;;;;;;;;;;5086917;28;20036;-76
2022/05/10 15:48:32;;;;;;;10.75;3.35;;;;;;;;;;5086304;28;20048;-75
2022/05/10 15:51:03;;;;;;;12.32;3.17;;;;;;;;;;5087657;28;20052;-75
2022/05/10 15:53:38;;;;;;;8.15;4.00;;;;;;;;;;5086528;28;20048;-75
2022/05/10 15:56:15;;;;;;;10.15;3.33;;;;;;;;;;5086158;28;20407;-75
2022/05/10 15:58:45;;;;;;;6.63;3.00;;;;;;;;;;5086968;28;20040;-75
2022/05/10 16:01:16;;;;;;;7.78;3.33;;;;;;;;;;5084660;28;20071;-76
2022/05/10 16:04:07;;;;;;;11.40;3.80;;;;;;;;;;5086731;28;20047;-75